Békásmegyer ÉK további részletek Békásmegyer ÉK


Békásmegyer DK további részletek Békásmegyer DK


Csillaghegy NY további részletek Csillaghegy NY


Előrejelzés további részletek Előrejelzés


Eu hőtérkép további részletek Eu hőtérkép


Műhold további részletek Műhold


Radar további részletek Radar


EU min. hőtérkép további részletek EU min. hőtérkép


EU max. hőtérkép további részletek EU max. hőtérkép


Figyelmeztetés Zivatarok további részletek blitzortung!


Csapadékradar további részletek rain snow radar



Extreme high temperature From: 21-06-2021 00:00 Until: 23:59 warning for: Extreme high temperature Level: Orange info button
Thunderstorms From: 21-06-2021 00:00 Until: 23:59 warning for: Thunderstorms Level: Yellow info button

Közeli METAR jelentések

   
LHBP - Budapest
Távolság az állomástól: DK 24 km
Frissítve: Jun 21 2021 3:30 am
Derült  
Derült  
   Szél: ÉÉNY 3.7 km/h
Szél: ÉÉNY 3.7 km/h
Hőmérséklet: 18°C
Harmatpont: 16°C
Páratartalom: 88%
Légnyomás: 1009 hPa
Látótávolság: More than 10 km
Felhő fajták: Derült
LHBP 210130Z 33002KT CAVOK 18/16 Q1009 NOSIG
LHDC - Debrecen
Távolság az állomástól: K 192 km
Frissítve: Jun 21 2021 3:15 am
Derült  
Derült  
   Szél: K 3.7 km/h
Szél: K 3.7 km/h
Hőmérséklet: 19°C
Harmatpont: 17°C
Páratartalom: 88%
Légnyomás: 1009 hPa
Látótávolság: More than 10 km
Felhő fajták: Derült
LHDC 210115Z AUTO 09002KT CAVOK 19/17 Q1009
LHKE - Kecskemét
Távolság az állomástól: DK 91 km
Frissítve: Jun 21 2021 3:15 am
Derült  
Derült  
   Szél: NYÉNY 3.7 km/h
Szél: NYÉNY 3.7 km/h
Hőmérséklet: 18°C
Harmatpont: 15°C
Páratartalom: 83%
Légnyomás: 1009 hPa
Látótávolság: More than 10 km
Felhő fajták: Derült
LHKE 210115Z 29002KT CAVOK 18/15 Q1009 R12/01//95 NOSIG RMK BLU
LHPA - Pápa
Távolság az állomástól: NY 121 km
Frissítve: Jun 21 2021 3:15 am
Derült  
Derült  
   Szél: DK 7.4 km/h
Szél: DK 7.4 km/h
Hőmérséklet: 21°C
Harmatpont: 16°C
Páratartalom: 73%
Légnyomás: 1008 hPa
Látótávolság: More than 10 km
Felhő fajták: Derült
LHPA 210115Z 14004KT CAVOK 21/16 Q1008 NOSIG RMK BLU
LZSL - Sliac, Slovakia
Távolság az állomástól: É 116 km
Frissítve: Jun 9 2021 10:32 am
NOT Current
Kissé felhős  
Kissé felhős  
   Szél: DK 7.4 km/h
Szél: DK 7.4 km/h
Hőmérséklet: 25°C
Harmatpont: 11°C
Páratartalom: 42%
Légnyomás: 1017 hPa
Felhők: Kissé felhős
Látótávolság: More than 10 km
Felhő fajták: Kissé felhős 4000 ft
LZSL 090832Z 13004KT 9999 FEW040 25/11 Q1017
LOWW - Wien, Austria
Távolság az állomástól: NY 195 km
Frissítve: Jun 21 2021 3:20 am
Derült  
Derült  
   Szél: DK 11.1 km/h
Szél: DK 11.1 km/h
Hőmérséklet: 22°C
Harmatpont: 18°C
Páratartalom: 78%
Légnyomás: 1007 hPa
Látótávolság: More than 10 km
Felhő fajták: Derült
LOWW 210120Z 13006KT CAVOK 22/18 Q1007 NOSIG

Eredeti script  Saratoga-weather.org Adapted for the template by  Weerstation Leuven